sensor_id;sensor_type;location;lat;lon;timestamp;pressure;altitude;pressure_sealevel;temperature;humidity
52653;BME280;39353;42.864;12.014;2023-06-26T00:02:03;97495.42;;;26.44;40.35
52653;BME280;39353;42.864;12.014;2023-06-26T00:04:30;97498.23;;;26.44;40.41
52653;BME280;39353;42.864;12.014;2023-06-26T00:07:12;97494.82;;;26.44;40.29
52653;BME280;39353;42.864;12.014;2023-06-26T00:09:53;97489.20;;;26.42;40.36
52653;BME280;39353;42.864;12.014;2023-06-26T00:12:35;97478.89;;;26.41;40.46
52653;BME280;39353;42.864;12.014;2023-06-26T00:15:16;97481.75;;;26.42;40.67
52653;BME280;39353;42.864;12.014;2023-06-26T00:17:58;97483.13;;;26.42;40.56
52653;BME280;39353;42.864;12.014;2023-06-26T00:20:26;97482.96;;;26.41;40.41
52653;BME280;39353;42.864;12.014;2023-06-26T00:23:07;97479.36;;;26.38;40.77
52653;BME280;39353;42.864;12.014;2023-06-26T00:25:48;97479.34;;;26.36;40.86
52653;BME280;39353;42.864;12.014;2023-06-26T00:28:16;97480.27;;;26.36;41.02
52653;BME280;39353;42.864;12.014;2023-06-26T00:30:44;97476.20;;;26.34;40.84
52653;BME280;39353;42.864;12.014;2023-06-26T00:33:11;97475.27;;;26.33;40.82
52653;BME280;39353;42.864;12.014;2023-06-26T00:35:38;97474.21;;;26.32;40.99
52653;BME280;39353;42.864;12.014;2023-06-26T00:38:21;97474.15;;;26.31;40.82
52653;BME280;39353;42.864;12.014;2023-06-26T00:41:03;97470.17;;;26.28;41.06
52653;BME280;39353;42.864;12.014;2023-06-26T00:43:32;97471.91;;;26.27;41.02
52653;BME280;39353;42.864;12.014;2023-06-26T00:46:00;97474.20;;;26.24;40.95
52653;BME280;39353;42.864;12.014;2023-06-26T00:48:46;97474.06;;;26.22;41.10
52653;BME280;39353;42.864;12.014;2023-06-26T00:51:15;97477.91;;;26.21;41.11
52653;BME280;39353;42.864;12.014;2023-06-26T00:53:57;97478.17;;;26.19;40.97
52653;BME280;39353;42.864;12.014;2023-06-26T00:56:39;97478.48;;;26.17;41.16
52653;BME280;39353;42.864;12.014;2023-06-26T00:59:07;97473.00;;;26.14;41.25
52653;BME280;39353;42.864;12.014;2023-06-26T01:01:35;97475.23;;;26.13;41.22
52653;BME280;39353;42.864;12.014;2023-06-26T01:04:16;97478.67;;;26.12;41.21
52653;BME280;39353;42.864;12.014;2023-06-26T01:06:47;97479.71;;;26.11;41.30
52653;BME280;39353;42.864;12.014;2023-06-26T01:09:18;97480.98;;;26.11;41.26
52653;BME280;39353;42.864;12.014;2023-06-26T01:11:46;97476.64;;;26.11;41.48
52653;BME280;39353;42.864;12.014;2023-06-26T01:14:15;97479.11;;;26.11;41.46
52653;BME280;39353;42.864;12.014;2023-06-26T01:16:43;97480.04;;;26.11;41.46
52653;BME280;39353;42.864;12.014;2023-06-26T01:19:20;97483.40;;;26.11;41.56
52653;BME280;39353;42.864;12.014;2023-06-26T01:27:27;97472.71;;;26.09;41.80
52653;BME280;39353;42.864;12.014;2023-06-26T01:29:56;97475.54;;;26.11;41.79
52653;BME280;39353;42.864;12.014;2023-06-26T01:32:39;97471.40;;;26.11;41.89
52653;BME280;39353;42.864;12.014;2023-06-26T01:35:08;97470.52;;;26.11;42.05
52653;BME280;39353;42.864;12.014;2023-06-26T01:37:36;97470.79;;;26.13;41.77
52653;BME280;39353;42.864;12.014;2023-06-26T01:40:04;97467.44;;;26.13;41.81
52653;BME280;39353;42.864;12.014;2023-06-26T01:42:46;97468.96;;;26.13;41.92
52653;BME280;39353;42.864;12.014;2023-06-26T01:45:30;97471.52;;;26.13;41.84
52653;BME280;39353;42.864;12.014;2023-06-26T01:48:06;97469.52;;;26.13;41.81
52653;BME280;39353;42.864;12.014;2023-06-26T01:50:39;97465.77;;;26.12;41.94
52653;BME280;39353;42.864;12.014;2023-06-26T01:53:24;97461.52;;;26.11;41.93
52653;BME280;39353;42.864;12.014;2023-06-26T01:56:13;97463.85;;;26.10;41.84
52653;BME280;39353;42.864;12.014;2023-06-26T01:58:57;97463.14;;;26.08;41.90
52653;BME280;39353;42.864;12.014;2023-06-26T02:01:28;97461.38;;;26.08;42.00
52653;BME280;39353;42.864;12.014;2023-06-26T02:04:08;97456.64;;;26.07;42.12
52653;BME280;39353;42.864;12.014;2023-06-26T02:06:50;97455.09;;;26.05;41.91
52653;BME280;39353;42.864;12.014;2023-06-26T02:09:18;97458.67;;;26.01;42.04
52653;BME280;39353;42.864;12.014;2023-06-26T02:12:00;97458.58;;;25.97;42.10
52653;BME280;39353;42.864;12.014;2023-06-26T02:14:27;97463.46;;;25.95;42.18
52653;BME280;39353;42.864;12.014;2023-06-26T02:16:54;97460.65;;;25.94;42.17
52653;BME280;39353;42.864;12.014;2023-06-26T02:19:22;97462.77;;;25.93;42.34
52653;BME280;39353;42.864;12.014;2023-06-26T02:21:50;97461.94;;;25.91;42.27
52653;BME280;39353;42.864;12.014;2023-06-26T02:24:32;97463.80;;;25.90;42.38
52653;BME280;39353;42.864;12.014;2023-06-26T02:27:02;97464.64;;;25.86;42.35
52653;BME280;39353;42.864;12.014;2023-06-26T02:29:30;97462.19;;;25.83;42.36
52653;BME280;39353;42.864;12.014;2023-06-26T02:32:11;97459.71;;;25.82;42.56
52653;BME280;39353;42.864;12.014;2023-06-26T02:34:52;97460.48;;;25.82;42.44
52653;BME280;39353;42.864;12.014;2023-06-26T02:37:21;97462.23;;;25.81;42.64
52653;BME280;39353;42.864;12.014;2023-06-26T02:40:03;97459.09;;;25.80;42.96
52653;BME280;39353;42.864;12.014;2023-06-26T02:42:44;97457.76;;;25.79;42.64
52653;BME280;39353;42.864;12.014;2023-06-26T02:45:25;97454.18;;;25.78;42.65
52653;BME280;39353;42.864;12.014;2023-06-26T02:48:08;97451.31;;;25.77;42.75
52653;BME280;39353;42.864;12.014;2023-06-26T02:50:36;97455.44;;;25.78;42.87
52653;BME280;39353;42.864;12.014;2023-06-26T02:53:13;97453.19;;;25.77;42.69
52653;BME280;39353;42.864;12.014;2023-06-26T02:55:42;97456.59;;;25.76;42.68
52653;BME280;39353;42.864;12.014;2023-06-26T02:58:24;97460.09;;;25.76;42.83
52653;BME280;39353;42.864;12.014;2023-06-26T03:00:51;97454.02;;;25.74;42.84
52653;BME280;39353;42.864;12.014;2023-06-26T03:03:34;97455.84;;;25.74;42.93
52653;BME280;39353;42.864;12.014;2023-06-26T03:06:21;97457.71;;;25.74;42.99
52653;BME280;39353;42.864;12.014;2023-06-26T03:09:03;97457.83;;;25.74;42.98
52653;BME280;39353;42.864;12.014;2023-06-26T03:11:33;97463.42;;;25.73;42.99
52653;BME280;39353;42.864;12.014;2023-06-26T03:14:00;97462.53;;;25.72;43.09
52653;BME280;39353;42.864;12.014;2023-06-26T03:16:41;97463.39;;;25.72;43.06
52653;BME280;39353;42.864;12.014;2023-06-26T03:19:22;97464.70;;;25.70;43.15
52653;BME280;39353;42.864;12.014;2023-06-26T03:22:11;97465.69;;;25.71;43.12
52653;BME280;39353;42.864;12.014;2023-06-26T03:24:39;97465.97;;;25.69;43.07
52653;BME280;39353;42.864;12.014;2023-06-26T03:27:07;97463.52;;;25.68;43.27
52653;BME280;39353;42.864;12.014;2023-06-26T03:29:38;97463.07;;;25.66;43.32
52653;BME280;39353;42.864;12.014;2023-06-26T03:32:19;97462.06;;;25.65;43.23
52653;BME280;39353;42.864;12.014;2023-06-26T03:35:00;97463.27;;;25.64;43.07
52653;BME280;39353;42.864;12.014;2023-06-26T03:37:30;97463.79;;;25.62;43.13
52653;BME280;39353;42.864;12.014;2023-06-26T03:40:11;97460.39;;;25.58;43.10
52653;BME280;39353;42.864;12.014;2023-06-26T03:42:41;97466.47;;;25.55;43.19
52653;BME280;39353;42.864;12.014;2023-06-26T03:45:08;97470.95;;;25.53;43.32
52653;BME280;39353;42.864;12.014;2023-06-26T03:47:49;97471.59;;;25.51;43.27
52653;BME280;39353;42.864;12.014;2023-06-26T03:50:30;97464.84;;;25.51;43.28
52653;BME280;39353;42.864;12.014;2023-06-26T03:53:12;97471.09;;;25.50;43.32
52653;BME280;39353;42.864;12.014;2023-06-26T03:55:41;97479.20;;;25.49;43.32
52653;BME280;39353;42.864;12.014;2023-06-26T03:58:09;97478.70;;;25.48;43.40
52653;BME280;39353;42.864;12.014;2023-06-26T04:00:36;97477.61;;;25.48;43.51
52653;BME280;39353;42.864;12.014;2023-06-26T04:03:18;97480.67;;;25.48;43.45
52653;BME280;39353;42.864;12.014;2023-06-26T04:05:59;97479.58;;;25.48;43.25
52653;BME280;39353;42.864;12.014;2023-06-26T04:08:41;97476.66;;;25.47;43.28
52653;BME280;39353;42.864;12.014;2023-06-26T04:11:08;97476.04;;;25.47;43.14
52653;BME280;39353;42.864;12.014;2023-06-26T04:13:37;97478.08;;;25.46;43.22
52653;BME280;39353;42.864;12.014;2023-06-26T04:16:20;97476.39;;;25.47;43.23
52653;BME280;39353;42.864;12.014;2023-06-26T04:18:47;97479.73;;;25.48;43.19
52653;BME280;39353;42.864;12.014;2023-06-26T04:21:16;97475.67;;;25.48;43.01
52653;BME280;39353;42.864;12.014;2023-06-26T04:23:57;97476.89;;;25.48;43.12
52653;BME280;39353;42.864;12.014;2023-06-26T04:26:38;97477.66;;;25.49;43.20
52653;BME280;39353;42.864;12.014;2023-06-26T04:29:21;97482.61;;;25.49;43.02
52653;BME280;39353;42.864;12.014;2023-06-26T04:32:06;97483.98;;;25.48;43.08
52653;BME280;39353;42.864;12.014;2023-06-26T04:34:35;97485.64;;;25.49;43.32
52653;BME280;39353;42.864;12.014;2023-06-26T04:37:16;97489.22;;;25.51;43.27
52653;BME280;39353;42.864;12.014;2023-06-26T04:39:44;97490.12;;;25.52;43.21
52653;BME280;39353;42.864;12.014;2023-06-26T04:42:25;97489.22;;;25.54;43.27
52653;BME280;39353;42.864;12.014;2023-06-26T04:44:53;97485.38;;;25.54;43.22
52653;BME280;39353;42.864;12.014;2023-06-26T04:47:20;97486.86;;;25.54;43.09
52653;BME280;39353;42.864;12.014;2023-06-26T04:50:02;97488.67;;;25.54;43.18
52653;BME280;39353;42.864;12.014;2023-06-26T04:52:43;97490.77;;;25.54;43.42
52653;BME280;39353;42.864;12.014;2023-06-26T04:55:10;97488.44;;;25.53;43.44
52653;BME280;39353;42.864;12.014;2023-06-26T04:57:38;97485.09;;;25.54;43.34
52653;BME280;39353;42.864;12.014;2023-06-26T05:00:05;97484.77;;;25.55;43.45
52653;BME280;39353;42.864;12.014;2023-06-26T05:02:36;97486.41;;;25.56;43.48
52653;BME280;39353;42.864;12.014;2023-06-26T05:05:04;97482.02;;;25.57;43.51
52653;BME280;39353;42.864;12.014;2023-06-26T05:07:31;97481.50;;;25.58;43.58
52653;BME280;39353;42.864;12.014;2023-06-26T05:09:59;97482.79;;;25.61;43.54
52653;BME280;39353;42.864;12.014;2023-06-26T05:12:40;97477.50;;;25.64;43.59
52653;BME280;39353;42.864;12.014;2023-06-26T05:15:07;97479.73;;;25.66;43.37
52653;BME280;39353;42.864;12.014;2023-06-26T05:17:48;97478.98;;;25.68;43.37
52653;BME280;39353;42.864;12.014;2023-06-26T05:20:17;97481.52;;;25.68;43.52
52653;BME280;39353;42.864;12.014;2023-06-26T05:22:58;97477.27;;;25.69;43.90
52653;BME280;39353;42.864;12.014;2023-06-26T05:25:40;97477.23;;;25.70;44.28
52653;BME280;39353;42.864;12.014;2023-06-26T05:28:08;97481.52;;;25.71;44.50
52653;BME280;39353;42.864;12.014;2023-06-26T05:30:37;97484.71;;;25.71;44.46
52653;BME280;39353;42.864;12.014;2023-06-26T05:33:19;97488.85;;;25.71;44.18
52653;BME280;39353;42.864;12.014;2023-06-26T05:35:49;97487.35;;;25.72;44.20
52653;BME280;39353;42.864;12.014;2023-06-26T05:38:32;97481.77;;;25.73;44.35
52653;BME280;39353;42.864;12.014;2023-06-26T05:41:00;97481.73;;;25.75;44.32
52653;BME280;39353;42.864;12.014;2023-06-26T05:43:41;97487.30;;;25.77;44.17
52653;BME280;39353;42.864;12.014;2023-06-26T05:46:10;97485.34;;;25.78;44.42
52653;BME280;39353;42.864;12.014;2023-06-26T05:48:52;97485.32;;;25.81;44.37
52653;BME280;39353;42.864;12.014;2023-06-26T05:51:34;97483.50;;;25.80;44.38
52653;BME280;39353;42.864;12.014;2023-06-26T05:54:16;97486.14;;;25.80;44.24
52653;BME280;39353;42.864;12.014;2023-06-26T05:56:43;97494.68;;;25.83;44.43
52653;BME280;39353;42.864;12.014;2023-06-26T05:59:12;97490.42;;;25.86;44.70
52653;BME280;39353;42.864;12.014;2023-06-26T06:01:42;97491.41;;;25.87;44.81
52653;BME280;39353;42.864;12.014;2023-06-26T06:04:09;97487.21;;;25.90;44.70
52653;BME280;39353;42.864;12.014;2023-06-26T06:06:36;97486.55;;;25.94;44.97
52653;BME280;39353;42.864;12.014;2023-06-26T06:09:18;97482.95;;;25.97;45.76
52653;BME280;39353;42.864;12.014;2023-06-26T06:11:46;97484.31;;;26.01;45.54
52653;BME280;39353;42.864;12.014;2023-06-26T06:14:28;97485.45;;;26.05;46.17
52653;BME280;39353;42.864;12.014;2023-06-26T06:17:09;97490.42;;;26.09;46.16
52653;BME280;39353;42.864;12.014;2023-06-26T06:19:50;97491.71;;;26.12;45.91
52653;BME280;39353;42.864;12.014;2023-06-26T06:22:17;97493.25;;;26.15;45.87
52653;BME280;39353;42.864;12.014;2023-06-26T06:24:45;97495.96;;;26.17;45.54
52653;BME280;39353;42.864;12.014;2023-06-26T06:27:12;97495.40;;;26.21;45.64
52653;BME280;39353;42.864;12.014;2023-06-26T06:29:40;97494.36;;;26.22;45.63
52653;BME280;39353;42.864;12.014;2023-06-26T06:32:08;97495.91;;;26.23;45.49
52653;BME280;39353;42.864;12.014;2023-06-26T06:34:35;97496.02;;;26.24;45.35
52653;BME280;39353;42.864;12.014;2023-06-26T06:37:16;97496.66;;;26.22;45.26
52653;BME280;39353;42.864;12.014;2023-06-26T06:39:44;97500.26;;;26.23;45.47
52653;BME280;39353;42.864;12.014;2023-06-26T06:42:12;97501.12;;;26.28;45.43
52653;BME280;39353;42.864;12.014;2023-06-26T06:44:53;97503.43;;;26.33;45.44
52653;BME280;39353;42.864;12.014;2023-06-26T06:47:36;97505.71;;;26.39;45.37
52653;BME280;39353;42.864;12.014;2023-06-26T06:50:04;97505.30;;;26.42;45.14
52653;BME280;39353;42.864;12.014;2023-06-26T06:52:38;97504.08;;;26.47;45.09
52653;BME280;39353;42.864;12.014;2023-06-26T06:55:21;97503.92;;;26.49;44.73
52653;BME280;39353;42.864;12.014;2023-06-26T06:58:02;97509.16;;;26.49;44.19
52653;BME280;39353;42.864;12.014;2023-06-26T07:00:30;97505.77;;;26.52;43.84
52653;BME280;39353;42.864;12.014;2023-06-26T07:03:12;97503.88;;;26.56;43.94
52653;BME280;39353;42.864;12.014;2023-06-26T07:05:41;97506.16;;;26.59;44.05
52653;BME280;39353;42.864;12.014;2023-06-26T07:08:09;97504.86;;;26.62;44.08
52653;BME280;39353;42.864;12.014;2023-06-26T07:10:37;97504.33;;;26.66;43.99
52653;BME280;39353;42.864;12.014;2023-06-26T07:13:05;97506.88;;;26.70;43.95
52653;BME280;39353;42.864;12.014;2023-06-26T07:15:46;97507.58;;;26.74;43.91
52653;BME280;39353;42.864;12.014;2023-06-26T07:18:16;97510.63;;;26.77;43.95
52653;BME280;39353;42.864;12.014;2023-06-26T07:20:57;97509.52;;;26.77;44.00
52653;BME280;39353;42.864;12.014;2023-06-26T07:23:24;97507.87;;;26.76;44.08
52653;BME280;39353;42.864;12.014;2023-06-26T07:25:52;97508.55;;;26.78;44.27
52653;BME280;39353;42.864;12.014;2023-06-26T07:28:33;97513.84;;;26.79;44.17
52653;BME280;39353;42.864;12.014;2023-06-26T07:31:15;97515.93;;;26.82;44.03
52653;BME280;39353;42.864;12.014;2023-06-26T07:33:44;97514.90;;;26.84;43.95
52653;BME280;39353;42.864;12.014;2023-06-26T07:36:14;97512.65;;;26.87;44.07
52653;BME280;39353;42.864;12.014;2023-06-26T07:38:42;97517.66;;;26.89;44.01
52653;BME280;39353;42.864;12.014;2023-06-26T07:41:10;97522.68;;;26.88;43.84
52653;BME280;39353;42.864;12.014;2023-06-26T07:43:39;97523.26;;;26.84;43.43
52653;BME280;39353;42.864;12.014;2023-06-26T07:46:07;97529.01;;;26.86;43.69
52653;BME280;39353;42.864;12.014;2023-06-26T07:48:34;97533.80;;;26.88;43.44
52653;BME280;39353;42.864;12.014;2023-06-26T07:51:15;97528.23;;;26.89;43.44
52653;BME280;39353;42.864;12.014;2023-06-26T07:53:57;97527.65;;;26.92;43.64
52653;BME280;39353;42.864;12.014;2023-06-26T07:56:24;97525.54;;;26.97;43.86
52653;BME280;39353;42.864;12.014;2023-06-26T07:59:06;97526.08;;;27.02;44.15
52653;BME280;39353;42.864;12.014;2023-06-26T08:01:33;97527.39;;;27.01;43.76
52653;BME280;39353;42.864;12.014;2023-06-26T08:04:02;97526.98;;;26.97;43.27
52653;BME280;39353;42.864;12.014;2023-06-26T08:06:43;97530.06;;;26.91;42.88
52653;BME280;39353;42.864;12.014;2023-06-26T08:09:11;97529.23;;;26.87;42.71
52653;BME280;39353;42.864;12.014;2023-06-26T08:11:39;97534.29;;;26.85;42.41
52653;BME280;39353;42.864;12.014;2023-06-26T08:14:21;97534.77;;;26.85;42.24
52653;BME280;39353;42.864;12.014;2023-06-26T08:16:48;97532.13;;;26.84;42.45
52653;BME280;39353;42.864;12.014;2023-06-26T08:19:16;97535.55;;;26.83;42.55
52653;BME280;39353;42.864;12.014;2023-06-26T08:21:57;97527.98;;;26.83;42.56
52653;BME280;39353;42.864;12.014;2023-06-26T08:24:24;97524.85;;;26.84;42.72
52653;BME280;39353;42.864;12.014;2023-06-26T08:27:05;97524.88;;;26.86;42.97
52653;BME280;39353;42.864;12.014;2023-06-26T08:29:48;97526.38;;;26.89;43.00
52653;BME280;39353;42.864;12.014;2023-06-26T08:32:15;97524.79;;;26.91;42.97
52653;BME280;39353;42.864;12.014;2023-06-26T08:34:58;97529.21;;;26.94;42.86
52653;BME280;39353;42.864;12.014;2023-06-26T08:37:25;97522.63;;;26.98;42.93
52653;BME280;39353;42.864;12.014;2023-06-26T08:39:53;97524.86;;;27.02;42.93
52653;BME280;39353;42.864;12.014;2023-06-26T08:42:21;97521.19;;;27.05;42.98
52653;BME280;39353;42.864;12.014;2023-06-26T08:44:48;97521.92;;;27.08;43.16
52653;BME280;39353;42.864;12.014;2023-06-26T08:47:30;97519.80;;;27.12;43.17
52653;BME280;39353;42.864;12.014;2023-06-26T08:50:07;97522.77;;;27.15;43.30
52653;BME280;39353;42.864;12.014;2023-06-26T08:52:54;97521.14;;;27.17;43.13
52653;BME280;39353;42.864;12.014;2023-06-26T08:55:27;97519.27;;;27.18;43.09
52653;BME280;39353;42.864;12.014;2023-06-26T08:57:55;97521.48;;;27.20;43.07
52653;BME280;39353;42.864;12.014;2023-06-26T09:00:23;97517.80;;;27.21;43.11
52653;BME280;39353;42.864;12.014;2023-06-26T09:03:06;97515.62;;;27.24;43.00
52653;BME280;39353;42.864;12.014;2023-06-26T09:05:48;97515.39;;;27.26;42.67
52653;BME280;39353;42.864;12.014;2023-06-26T09:08:16;97514.96;;;27.25;41.89
52653;BME280;39353;42.864;12.014;2023-06-26T09:10:57;97516.54;;;27.23;41.68
52653;BME280;39353;42.864;12.014;2023-06-26T09:13:39;97516.48;;;27.23;41.90
52653;BME280;39353;42.864;12.014;2023-06-26T09:16:24;97510.29;;;27.29;41.99
52653;BME280;39353;42.864;12.014;2023-06-26T09:18:53;97509.04;;;27.33;41.59
52653;BME280;39353;42.864;12.014;2023-06-26T09:21:23;97505.98;;;27.37;41.32
52653;BME280;39353;42.864;12.014;2023-06-26T09:24:06;97503.95;;;27.39;41.39
52653;BME280;39353;42.864;12.014;2023-06-26T09:26:39;97501.63;;;27.42;41.12
52653;BME280;39353;42.864;12.014;2023-06-26T09:29:07;97497.61;;;27.44;40.92
52653;BME280;39353;42.864;12.014;2023-06-26T09:31:51;97496.55;;;27.47;40.96
52653;BME280;39353;42.864;12.014;2023-06-26T09:34:33;97498.83;;;27.49;40.94
52653;BME280;39353;42.864;12.014;2023-06-26T09:37:14;97492.77;;;27.48;40.86
52653;BME280;39353;42.864;12.014;2023-06-26T09:39:56;97494.48;;;27.48;40.80
52653;BME280;39353;42.864;12.014;2023-06-26T09:42:37;97490.11;;;27.48;40.86
52653;BME280;39353;42.864;12.014;2023-06-26T09:45:18;97489.48;;;27.47;40.79
52653;BME280;39353;42.864;12.014;2023-06-26T09:47:47;97488.60;;;27.47;40.72
52653;BME280;39353;42.864;12.014;2023-06-26T09:50:22;97486.15;;;27.48;40.88
52653;BME280;39353;42.864;12.014;2023-06-26T09:53:13;97488.45;;;27.48;40.87
52653;BME280;39353;42.864;12.014;2023-06-26T09:55:41;97485.27;;;27.47;40.78
52653;BME280;39353;42.864;12.014;2023-06-26T09:58:26;97485.94;;;27.49;40.84
52653;BME280;39353;42.864;12.014;2023-06-26T10:00:54;97486.65;;;27.49;40.60
52653;BME280;39353;42.864;12.014;2023-06-26T10:03:22;97482.91;;;27.50;40.67
52653;BME280;39353;42.864;12.014;2023-06-26T10:05:50;97483.52;;;27.53;40.51
52653;BME280;39353;42.864;12.014;2023-06-26T10:08:34;97489.98;;;27.52;40.56
52653;BME280;39353;42.864;12.014;2023-06-26T10:11:04;97487.55;;;27.57;39.72
52653;BME280;39353;42.864;12.014;2023-06-26T10:13:42;97482.21;;;27.56;39.65
52653;BME280;39353;42.864;12.014;2023-06-26T10:16:22;97483.41;;;27.55;39.76
52653;BME280;39353;42.864;12.014;2023-06-26T10:18:56;97488.78;;;27.60;40.01
52653;BME280;39353;42.864;12.014;2023-06-26T10:21:29;97486.15;;;27.63;40.41
52653;BME280;39353;42.864;12.014;2023-06-26T10:23:57;97484.94;;;27.64;40.50
52653;BME280;39353;42.864;12.014;2023-06-26T10:26:44;97485.15;;;27.64;40.69
52653;BME280;39353;42.864;12.014;2023-06-26T10:29:26;97487.03;;;27.65;40.79
52653;BME280;39353;42.864;12.014;2023-06-26T10:31:57;97488.70;;;27.69;40.92
52653;BME280;39353;42.864;12.014;2023-06-26T10:34:40;97494.00;;;27.75;41.37
52653;BME280;39353;42.864;12.014;2023-06-26T10:37:08;97491.30;;;27.80;41.38
52653;BME280;39353;42.864;12.014;2023-06-26T10:39:51;97485.73;;;27.82;41.35
52653;BME280;39353;42.864;12.014;2023-06-26T10:42:20;97482.98;;;27.83;41.54
52653;BME280;39353;42.864;12.014;2023-06-26T10:45:17;97480.46;;;27.84;41.86
52653;BME280;39353;42.864;12.014;2023-06-26T10:47:58;97483.39;;;27.88;42.85
52653;BME280;39353;42.864;12.014;2023-06-26T10:50:31;97482.45;;;27.89;43.23
52653;BME280;39353;42.864;12.014;2023-06-26T10:53:07;97478.10;;;27.91;43.74
52653;BME280;39353;42.864;12.014;2023-06-26T10:55:37;97477.22;;;27.93;42.94
52653;BME280;39353;42.864;12.014;2023-06-26T11:04:00;97472.92;;;27.94;42.41
52653;BME280;39353;42.864;12.014;2023-06-26T11:06:35;97469.84;;;27.93;42.27
52653;BME280;39353;42.864;12.014;2023-06-26T11:14:32;97467.78;;;27.95;41.67
52653;BME280;39353;42.864;12.014;2023-06-26T11:17:03;97466.74;;;27.95;42.44
52653;BME280;39353;42.864;12.014;2023-06-26T11:19:44;97465.63;;;27.96;43.12
52653;BME280;39353;42.864;12.014;2023-06-26T11:22:26;97463.34;;;28.00;43.20
52653;BME280;39353;42.864;12.014;2023-06-26T11:25:09;97459.36;;;28.03;43.03
52653;BME280;39353;42.864;12.014;2023-06-26T11:27:53;97465.42;;;28.01;43.72
52653;BME280;39353;42.864;12.014;2023-06-26T11:30:26;97465.86;;;27.98;43.78
52653;BME280;39353;42.864;12.014;2023-06-26T11:33:08;97461.83;;;27.97;43.51
52653;BME280;39353;42.864;12.014;2023-06-26T11:35:49;97459.34;;;27.97;42.91
52653;BME280;39353;42.864;12.014;2023-06-26T11:38:37;97463.26;;;27.97;41.98
52653;BME280;39353;42.864;12.014;2023-06-26T11:41:04;97462.94;;;27.99;41.82
52653;BME280;39353;42.864;12.014;2023-06-26T11:43:49;97463.88;;;28.00;41.77
52653;BME280;39353;42.864;12.014;2023-06-26T11:46:34;97462.33;;;27.97;41.41
52653;BME280;39353;42.864;12.014;2023-06-26T11:49:06;97463.75;;;27.97;41.34
52653;BME280;39353;42.864;12.014;2023-06-26T11:51:35;97464.20;;;27.98;41.14
52653;BME280;39353;42.864;12.014;2023-06-26T11:54:05;97463.70;;;27.99;40.89
52653;BME280;39353;42.864;12.014;2023-06-26T11:56:33;97461.55;;;27.99;40.85
52653;BME280;39353;42.864;12.014;2023-06-26T11:59:10;97459.41;;;28.00;40.63
52653;BME280;39353;42.864;12.014;2023-06-26T12:01:42;97462.89;;;28.02;40.24
52653;BME280;39353;42.864;12.014;2023-06-26T12:04:26;97461.89;;;28.00;40.35
52653;BME280;39353;42.864;12.014;2023-06-26T12:07:09;97462.23;;;28.05;40.45
52653;BME280;39353;42.864;12.014;2023-06-26T12:09:51;97461.80;;;28.05;40.63
52653;BME280;39353;42.864;12.014;2023-06-26T12:12:18;97462.39;;;28.02;40.87
52653;BME280;39353;42.864;12.014;2023-06-26T12:14:46;97462.05;;;27.99;40.97
52653;BME280;39353;42.864;12.014;2023-06-26T12:17:27;97459.02;;;27.96;41.35
52653;BME280;39353;42.864;12.014;2023-06-26T12:19:57;97463.88;;;27.96;41.52
52653;BME280;39353;42.864;12.014;2023-06-26T12:22:34;97467.34;;;27.96;41.55
52653;BME280;39353;42.864;12.014;2023-06-26T12:25:22;97461.11;;;27.96;41.76
52653;BME280;39353;42.864;12.014;2023-06-26T12:27:55;97454.44;;;27.96;41.98
52653;BME280;39353;42.864;12.014;2023-06-26T12:30:23;97453.17;;;27.99;42.00
52653;BME280;39353;42.864;12.014;2023-06-26T12:33:03;97452.34;;;27.97;42.11
52653;BME280;39353;42.864;12.014;2023-06-26T12:35:33;97455.10;;;27.99;41.95
52653;BME280;39353;42.864;12.014;2023-06-26T12:38:01;97451.58;;;28.00;41.72
52653;BME280;39353;42.864;12.014;2023-06-26T12:40:45;97448.98;;;28.00;41.96
52653;BME280;39353;42.864;12.014;2023-06-26T12:43:22;97446.95;;;28.02;41.84
52653;BME280;39353;42.864;12.014;2023-06-26T12:46:06;97453.24;;;28.04;41.82
52653;BME280;39353;42.864;12.014;2023-06-26T12:48:43;97449.92;;;28.05;41.88
52653;BME280;39353;42.864;12.014;2023-06-26T12:51:26;97450.81;;;28.07;41.92
52653;BME280;39353;42.864;12.014;2023-06-26T12:54:08;97449.88;;;28.09;42.05
52653;BME280;39353;42.864;12.014;2023-06-26T12:56:52;97446.59;;;28.13;41.91
52653;BME280;39353;42.864;12.014;2023-06-26T12:59:23;97445.17;;;28.14;41.96
52653;BME280;39353;42.864;12.014;2023-06-26T13:01:51;97447.77;;;28.17;41.97
52653;BME280;39353;42.864;12.014;2023-06-26T13:04:18;97448.21;;;28.17;41.98
52653;BME280;39353;42.864;12.014;2023-06-26T13:07:03;97448.77;;;28.19;41.79
52653;BME280;39353;42.864;12.014;2023-06-26T13:09:47;97449.85;;;28.20;41.61
52653;BME280;39353;42.864;12.014;2023-06-26T13:12:16;97448.14;;;28.22;41.71
52653;BME280;39353;42.864;12.014;2023-06-26T13:14:45;97447.75;;;28.24;41.69
52653;BME280;39353;42.864;12.014;2023-06-26T13:17:26;97444.61;;;28.25;41.62
52653;BME280;39353;42.864;12.014;2023-06-26T13:20:08;97446.33;;;28.27;41.63
52653;BME280;39353;42.864;12.014;2023-06-26T13:22:50;97442.30;;;28.27;41.58
52653;BME280;39353;42.864;12.014;2023-06-26T13:25:17;97443.95;;;28.29;41.68
52653;BME280;39353;42.864;12.014;2023-06-26T13:27:58;97441.63;;;28.29;41.78
52653;BME280;39353;42.864;12.014;2023-06-26T13:30:27;97441.02;;;28.30;41.77
52653;BME280;39353;42.864;12.014;2023-06-26T13:32:56;97444.23;;;28.32;41.87
52653;BME280;39353;42.864;12.014;2023-06-26T13:35:24;97446.98;;;28.31;41.87
52653;BME280;39353;42.864;12.014;2023-06-26T13:37:52;97442.90;;;28.31;41.99
52653;BME280;39353;42.864;12.014;2023-06-26T13:40:19;97439.76;;;28.32;42.02
52653;BME280;39353;42.864;12.014;2023-06-26T13:43:00;97437.66;;;28.30;42.00
52653;BME280;39353;42.864;12.014;2023-06-26T13:45:28;97433.24;;;28.33;42.13
52653;BME280;39353;42.864;12.014;2023-06-26T13:48:09;97433.73;;;28.35;42.19